General Heriberto Jara International Airport
MMVR : now visible

Airfield :











YOU CAN JOIN US ON...

 
LOGIN :

Register | Disclaimer

   EN    FR    IT 

 









Legend :    VFR   Marginal VFR   IFR   Intensive IFR   Very Intensive IFR
Visi :
Ceiling :
>= 8 km
>= 3000ft
5 to 8 km
1000 to 3000 ft
1500m to 5 km
500 to 1000 ft
800 to 1500m
200 to 500 ft
< 800m
< 200 ft
Symbols :   Thunderstorms  Fog  Heavy snow  Heavy precipitations  Wind > 20 kt







- Airport Elevation : 90 ft
- IATA code : VER


MMVR - General Heriberto Jara International

CURRENT METAR :
  • 241940Z 07008KT 5SM FEW012 SCT250 30/24 A2973 RMK 8/101 HZY

EXPIRED METARs :
  • 241844Z 08007KT 5SM FEW012 31/25 A2977 RMK 8/100 HZY ISOL CI
  • 241749Z 08008KT 4SM SCT012 31/24 A2979 RMK SLP088 52002 973 8/100 HZY

TAF TAF MMVR
Valid from the 24 at 18:00 until the 25 at 18:00 UTC


241713Z 2418/2518 02012KT 5SM HZ SCT015 TX31/2420Z TN22/2512Z
FM250900 00000KT 3SM HZ FU BKN010
TEMPO 2512/2516 1SM BR BKN005
MMFR FIR / North America



MET'MAP, your aeronautical weather chart ! - Copyright ORBIFLY December 2007 - Disclaimer

ORBIFLY MET'MAP TEAM :

Programming & Development : Alexandra Zaïnal
Concept & Development : Baudouin d'Aumeries
Co-Development & Prog : Marc-Olivier Méhu
Technical & hardware support : Manuel Goepfert

Contact : metmap@orbifly.com




SOURCES & CREDITS :

   NOAA       Earth
Advisory